sensor_id;sensor_type;location;lat;lon;timestamp;P1;P2;P0
57798;PMS7003;43626;53.866;30.298;2024-02-26T00:04:58;28.2;23.6;14.2
57798;PMS7003;43626;53.866;30.298;2024-02-26T00:09:30;25.2;22.4;14
57798;PMS7003;43626;53.866;30.298;2024-02-26T00:14:34;27;22.6;14.2
57798;PMS7003;43626;53.866;30.298;2024-02-26T00:19:54;27.4;23.6;15.2
57798;PMS7003;43626;53.866;30.298;2024-02-26T00:24:26;27.4;23.2;14.8
57798;PMS7003;43626;53.866;30.298;2024-02-26T00:29:14;28.2;24.2;14.2
57798;PMS7003;43626;53.866;30.298;2024-02-26T00:34:28;29.2;24;14.4
57798;PMS7003;43626;53.866;30.298;2024-02-26T00:39:50;26.2;22.8;14.8
57798;PMS7003;43626;53.866;30.298;2024-02-26T00:45:04;31.5;24.8;15.3
57798;PMS7003;43626;53.866;30.298;2024-02-26T00:50:04;30;26.8;15.6
57798;PMS7003;43626;53.866;30.298;2024-02-26T00:54:22;30;26.8;15.6
57798;PMS7003;43626;53.866;30.298;2024-02-26T01:00:06;30.6;25.4;15.8
57798;PMS7003;43626;53.866;30.298;2024-02-26T01:04:38;30.6;25.4;15.8
57798;PMS7003;43626;53.866;30.298;2024-02-26T01:09:54;29.4;27.2;15.6
57798;PMS7003;43626;53.866;30.298;2024-02-26T01:14:28;30.6;27.4;16.6
57798;PMS7003;43626;53.866;30.298;2024-02-26T01:19:38;31;26.8;15.6
57798;PMS7003;43626;53.866;30.298;2024-02-26T01:24:36;31.8;27;16.4
57798;PMS7003;43626;53.866;30.298;2024-02-26T01:30:06;29.4;26.2;16.6
57798;PMS7003;43626;53.866;30.298;2024-02-26T01:34:34;29.4;26.2;16.6
57798;PMS7003;43626;53.866;30.298;2024-02-26T01:40:06;34.6;28.6;17.2
57798;PMS7003;43626;53.866;30.298;2024-02-26T01:44:14;34.6;28.6;17.2
57798;PMS7003;43626;53.866;30.298;2024-02-26T01:49:16;29.6;25.6;16.6
57798;PMS7003;43626;53.866;30.298;2024-02-26T01:54:22;31.3;28;16.8
57798;PMS7003;43626;53.866;30.298;2024-02-26T01:59:34;31.2;26;16.4
57798;PMS7003;43626;53.866;30.298;2024-02-26T02:04:32;33.4;28.2;16.2
57798;PMS7003;43626;53.866;30.298;2024-02-26T02:09:22;28.8;25.6;16.4
57798;PMS7003;43626;53.866;30.298;2024-02-26T02:14:50;28.6;26.4;16
57798;PMS7003;43626;53.866;30.298;2024-02-26T02:20:07;28.4;24.8;15.6
57798;PMS7003;43626;53.866;30.298;2024-02-26T02:25:06;25.4;21.8;14
57798;PMS7003;43626;53.866;30.298;2024-02-26T02:29:22;25.4;21.8;14
57798;PMS7003;43626;53.866;30.298;2024-02-26T02:34:32;22;19.2;12
57798;PMS7003;43626;53.866;30.298;2024-02-26T02:39:58;23.4;19.2;12.2
57798;PMS7003;43626;53.866;30.298;2024-02-26T02:44:48;22.2;18.8;12
57798;PMS7003;43626;53.866;30.298;2024-02-26T02:49:22;20.6;17.8;12
57798;PMS7003;43626;53.866;30.298;2024-02-26T02:55:06;18.8;16.8;11.4
57798;PMS7003;43626;53.866;30.298;2024-02-26T02:59:43;18.8;16.8;11.4
57798;PMS7003;43626;53.866;30.298;2024-02-26T03:05:06;24.8;20.4;12.8
57798;PMS7003;43626;53.866;30.298;2024-02-26T03:09:32;24.8;20.4;12.8
57798;PMS7003;43626;53.866;30.298;2024-02-26T03:15:06;25.6;22.4;13.8
57798;PMS7003;43626;53.866;30.298;2024-02-26T03:19:40;25.6;22.4;13.8
57798;PMS7003;43626;53.866;30.298;2024-02-26T03:25:06;28.4;23.8;15.2
57798;PMS7003;43626;53.866;30.298;2024-02-26T03:29:14;28.4;23.8;15.2
57798;PMS7003;43626;53.866;30.298;2024-02-26T03:34:42;24.8;22;14.2
57798;PMS7003;43626;53.866;30.298;2024-02-26T03:39:14;27.4;24.6;15.8
57798;PMS7003;43626;53.866;30.298;2024-02-26T03:44:22;27.6;23.6;14.6
57798;PMS7003;43626;53.866;30.298;2024-02-26T03:49:48;29.2;25.4;14.8
57798;PMS7003;43626;53.866;30.298;2024-02-26T03:54:50;29.8;24.5;15.8
57798;PMS7003;43626;53.866;30.298;2024-02-26T04:00:06;28.6;24.8;15.4
57798;PMS7003;43626;53.866;30.298;2024-02-26T04:04:22;28.6;24.8;15.4
57798;PMS7003;43626;53.866;30.298;2024-02-26T04:10:08;32.6;27;16.6
57798;PMS7003;43626;53.866;30.298;2024-02-26T04:14:50;32.6;27;16.6
57798;PMS7003;43626;53.866;30.298;2024-02-26T04:19:54;31;26;17
57798;PMS7003;43626;53.866;30.298;2024-02-26T04:24:35;30.4;24.8;15.8
57798;PMS7003;43626;53.866;30.298;2024-02-26T04:29:24;31.8;26.4;16.2
57798;PMS7003;43626;53.866;30.298;2024-02-26T04:35:06;29.8;25.8;16
57798;PMS7003;43626;53.866;30.298;2024-02-26T04:39:46;29.8;25.8;16
57798;PMS7003;43626;53.866;30.298;2024-02-26T04:44:40;30;26.6;17
57798;PMS7003;43626;53.866;30.298;2024-02-26T04:50:06;29;24.3;15.3
57798;PMS7003;43626;53.866;30.298;2024-02-26T04:55:04;30.8;26;15.8
57798;PMS7003;43626;53.866;30.298;2024-02-26T04:59:50;30.8;26;15.8
57798;PMS7003;43626;53.866;30.298;2024-02-26T05:05:04;24.6;22;13.4
57798;PMS7003;43626;53.866;30.298;2024-02-26T05:09:14;24.6;22;13.4
57798;PMS7003;43626;53.866;30.298;2024-02-26T05:14:22;31;23.6;14.4
57798;PMS7003;43626;53.866;30.298;2024-02-26T05:19:22;26.8;23.6;15
57798;PMS7003;43626;53.866;30.298;2024-02-26T05:24:37;28.4;23.8;15
57798;PMS7003;43626;53.866;30.298;2024-02-26T05:30:02;28.4;24.2;14.6
57798;PMS7003;43626;53.866;30.298;2024-02-26T05:34:44;33;26.4;15.4
57798;PMS7003;43626;53.866;30.298;2024-02-26T05:39:28;31.4;23.8;14.2
57798;PMS7003;43626;53.866;30.298;2024-02-26T05:45:04;27.8;24.8;14.8
57798;PMS7003;43626;53.866;30.298;2024-02-26T05:49:32;27.8;24.8;14.8
57798;PMS7003;43626;53.866;30.298;2024-02-26T05:54:22;25.8;22.3;13.5
57798;PMS7003;43626;53.866;30.298;2024-02-26T06:00:04;28.4;23.8;14
57798;PMS7003;43626;53.866;30.298;2024-02-26T06:04:44;28.4;23.8;14
57798;PMS7003;43626;53.866;30.298;2024-02-26T06:09:54;31;26;15.6
57798;PMS7003;43626;53.866;30.298;2024-02-26T06:14:14;33.2;29.6;17.2
57798;PMS7003;43626;53.866;30.298;2024-02-26T06:19:54;37.2;29.8;15.6
57798;PMS7003;43626;53.866;30.298;2024-02-26T06:25:04;38.2;29.6;17
57798;PMS7003;43626;53.866;30.298;2024-02-26T06:30:04;39.6;29.4;17
57798;PMS7003;43626;53.866;30.298;2024-02-26T06:34:22;39.6;29.4;17
57798;PMS7003;43626;53.866;30.298;2024-02-26T06:39:40;39;30.8;16
57798;PMS7003;43626;53.866;30.298;2024-02-26T06:44:14;34.4;28;16.6
57798;PMS7003;43626;53.866;30.298;2024-02-26T06:49:22;29.6;25;15.2
57798;PMS7003;43626;53.866;30.298;2024-02-26T06:54:14;25.6;23.6;13.6
57798;PMS7003;43626;53.866;30.298;2024-02-26T06:59:22;25;19.5;12.3
57798;PMS7003;43626;53.866;30.298;2024-02-26T07:04:52;27.4;24.8;15.6
57798;PMS7003;43626;53.866;30.298;2024-02-26T07:09:42;27.8;24;14.4
57798;PMS7003;43626;53.866;30.298;2024-02-26T07:14:30;27;24;13.6
57798;PMS7003;43626;53.866;30.298;2024-02-26T07:20:02;25.4;22.2;13.2
57798;PMS7003;43626;53.866;30.298;2024-02-26T07:24:48;29.6;24.4;14.6
57798;PMS7003;43626;53.866;30.298;2024-02-26T07:29:14;25.8;20.4;13.6
57798;PMS7003;43626;53.866;30.298;2024-02-26T07:34:14;27.2;22;13.2
57798;PMS7003;43626;53.866;30.298;2024-02-26T07:39:42;26.6;23.4;14
57798;PMS7003;43626;53.866;30.298;2024-02-26T07:44:34;26.2;22.2;13.6
57798;PMS7003;43626;53.866;30.298;2024-02-26T07:49:34;27.4;23.2;14.8
57798;PMS7003;43626;53.866;30.298;2024-02-26T07:54:14;32.4;26.6;16
57798;PMS7003;43626;53.866;30.298;2024-02-26T07:59:14;27.5;24.8;15
57798;PMS7003;43626;53.866;30.298;2024-02-26T08:05:00;26.8;23.8;13.6
57798;PMS7003;43626;53.866;30.298;2024-02-26T08:09:40;29.2;25.2;14.8
57798;PMS7003;43626;53.866;30.298;2024-02-26T08:14:54;29.6;26.4;15.4
57798;PMS7003;43626;53.866;30.298;2024-02-26T08:19:48;31.2;24.2;15.4
57798;PMS7003;43626;53.866;30.298;2024-02-26T08:24:54;26.4;22.6;13.8
57798;PMS7003;43626;53.866;30.298;2024-02-26T08:29:22;28;24.8;14.4
57798;PMS7003;43626;53.866;30.298;2024-02-26T08:34:36;29.6;24.8;15
57798;PMS7003;43626;53.866;30.298;2024-02-26T08:39:56;34.4;28;16.6
57798;PMS7003;43626;53.866;30.298;2024-02-26T08:44:42;28;24.8;16.2
57798;PMS7003;43626;53.866;30.298;2024-02-26T08:49:56;33;26.8;15.8
57798;PMS7003;43626;53.866;30.298;2024-02-26T08:55:02;32.2;28.2;16
57798;PMS7003;43626;53.866;30.298;2024-02-26T08:59:38;31.3;25.8;16.5
57798;PMS7003;43626;53.866;30.298;2024-02-26T09:04:28;27;24.2;15.8
57798;PMS7003;43626;53.866;30.298;2024-02-26T09:09:42;30;25.2;15
57798;PMS7003;43626;53.866;30.298;2024-02-26T09:15:02;26.6;25;16
57798;PMS7003;43626;53.866;30.298;2024-02-26T09:19:54;30;25.6;15.2
57798;PMS7003;43626;53.866;30.298;2024-02-26T09:24:22;31;27.4;16.4
57798;PMS7003;43626;53.866;30.298;2024-02-26T09:29:36;33.2;27.4;16.2
57798;PMS7003;43626;53.866;30.298;2024-02-26T09:34:46;36;28.8;17.8
57798;PMS7003;43626;53.866;30.298;2024-02-26T09:39:16;32.8;28.4;16.8
57798;PMS7003;43626;53.866;30.298;2024-02-26T09:44:32;32.6;27.6;16.2
57798;PMS7003;43626;53.866;30.298;2024-02-26T09:49:30;30.8;26.6;16.6
57798;PMS7003;43626;53.866;30.298;2024-02-26T09:54:40;31.3;26.7;16.7
57798;PMS7003;43626;53.866;30.298;2024-02-26T09:59:41;31.8;26.6;16.2
57798;PMS7003;43626;53.866;30.298;2024-02-26T10:04:32;33.4;28.4;17.2
57798;PMS7003;43626;53.866;30.298;2024-02-26T10:09:48;35.6;29.6;18.4
57798;PMS7003;43626;53.866;30.298;2024-02-26T10:14:32;35.2;30.6;18.6
57798;PMS7003;43626;53.866;30.298;2024-02-26T10:19:24;39.2;31.4;18.4
57798;PMS7003;43626;53.866;30.298;2024-02-26T10:24:34;40.4;31.6;19.2
57798;PMS7003;43626;53.866;30.298;2024-02-26T10:29:14;34;29.8;18.5
57798;PMS7003;43626;53.866;30.298;2024-02-26T10:35:05;33.8;29;18
57798;PMS7003;43626;53.866;30.298;2024-02-26T10:39:30;33.8;29;18
57798;PMS7003;43626;53.866;30.298;2024-02-26T10:45:04;34;28.6;17.8
57798;PMS7003;43626;53.866;30.298;2024-02-26T10:50:07;39.8;31.6;20
57798;PMS7003;43626;53.866;30.298;2024-02-26T10:54:56;39.8;31.6;20
57798;PMS7003;43626;53.866;30.298;2024-02-26T10:59:22;37;31.4;20
57798;PMS7003;43626;53.866;30.298;2024-02-26T11:04:46;37.8;30.2;18
57798;PMS7003;43626;53.866;30.298;2024-02-26T11:09:57;34.6;30;18.4
57798;PMS7003;43626;53.866;30.298;2024-02-26T11:15:06;36.2;28.6;17.4
57798;PMS7003;43626;53.866;30.298;2024-02-26T11:19:22;36.2;28.6;17.4
57798;PMS7003;43626;53.866;30.298;2024-02-26T11:24:46;35.4;29.4;17.6
57798;PMS7003;43626;53.866;30.298;2024-02-26T11:30:05;33;27.4;16.4
57798;PMS7003;43626;53.866;30.298;2024-02-26T11:34:50;33;27.4;16.4
57798;PMS7003;43626;53.866;30.298;2024-02-26T11:40:05;37.2;30.8;18.8
57798;PMS7003;43626;53.866;30.298;2024-02-26T11:44:14;37.2;30.8;18.8
57798;PMS7003;43626;53.866;30.298;2024-02-26T11:49:30;35.4;28.6;18.2
57798;PMS7003;43626;53.866;30.298;2024-02-26T11:54:40;32.6;28;17.2
57798;PMS7003;43626;53.866;30.298;2024-02-26T11:59:19;30.8;27.4;16.6
57798;PMS7003;43626;53.866;30.298;2024-02-26T12:04:16;34;28;17.6
57798;PMS7003;43626;53.866;30.298;2024-02-26T12:10:15;33.2;27;16
57798;PMS7003;43626;53.866;30.298;2024-02-26T12:14:32;33.2;27;16
57798;PMS7003;43626;53.866;30.298;2024-02-26T12:19:46;32.8;28.4;16.8
57798;PMS7003;43626;53.866;30.298;2024-02-26T12:34:36;30.6;25.6;15.4
57798;PMS7003;43626;53.866;30.298;2024-02-26T12:39:46;29.6;26.8;15.8
57798;PMS7003;43626;53.866;30.298;2024-02-26T12:45:07;38;30.2;17.8
57798;PMS7003;43626;53.866;30.298;2024-02-26T12:49:47;38;30.2;17.8
57798;PMS7003;43626;53.866;30.298;2024-02-26T12:54:14;31.2;26;15.2
57798;PMS7003;43626;53.866;30.298;2024-02-26T13:00:07;33.8;27.4;16.4
57798;PMS7003;43626;53.866;30.298;2024-02-26T13:04:46;33.8;27.4;16.4
57798;PMS7003;43626;53.866;30.298;2024-02-26T13:09:51;34.2;29.4;16.6
57798;PMS7003;43626;53.866;30.298;2024-02-26T13:15:05;33.6;27.4;17
57798;PMS7003;43626;53.866;30.298;2024-02-26T13:19:14;33.6;27.4;17
57798;PMS7003;43626;53.866;30.298;2024-02-26T13:24:34;30.8;26;15
57798;PMS7003;43626;53.866;30.298;2024-02-26T13:29:22;28;24;15.4
57798;PMS7003;43626;53.866;30.298;2024-02-26T13:34:46;33.3;27.5;16
57798;PMS7003;43626;53.866;30.298;2024-02-26T13:39:32;32.8;27;16.8
57798;PMS7003;43626;53.866;30.298;2024-02-26T13:44:46;31.4;26.6;16.2
57798;PMS7003;43626;53.866;30.298;2024-02-26T13:49:24;33.4;26.6;15.6
57798;PMS7003;43626;53.866;30.298;2024-02-26T13:55:06;32.4;27;15.6
57798;PMS7003;43626;53.866;30.298;2024-02-26T13:59:50;32.4;27;15.6
57798;PMS7003;43626;53.866;30.298;2024-02-26T14:04:22;32.6;27.8;15.8
57798;PMS7003;43626;53.866;30.298;2024-02-26T14:09:14;31;26.8;16.8
57798;PMS7003;43626;53.866;30.298;2024-02-26T14:14:46;40.6;32;18.4
57798;PMS7003;43626;53.866;30.298;2024-02-26T14:19:56;37.4;30.4;17
57798;PMS7003;43626;53.866;30.298;2024-02-26T14:24:36;42.2;31.6;17.8
57798;PMS7003;43626;53.866;30.298;2024-02-26T14:29:56;44.6;33.4;18.8
57798;PMS7003;43626;53.866;30.298;2024-02-26T14:34:32;44;34;19.3
57798;PMS7003;43626;53.866;30.298;2024-02-26T14:40:07;40.6;30.8;18.6
57798;PMS7003;43626;53.866;30.298;2024-02-26T14:44:40;40.6;30.8;18.6
57798;PMS7003;43626;53.866;30.298;2024-02-26T14:49:17;35;29.2;16.6
57798;PMS7003;43626;53.866;30.298;2024-02-26T14:54:15;40.2;32.4;18.4
57798;PMS7003;43626;53.866;30.298;2024-02-26T15:04:14;39.4;32.4;18.6
57798;PMS7003;43626;53.866;30.298;2024-02-26T15:09:22;42.2;32.8;19.6
57798;PMS7003;43626;53.866;30.298;2024-02-26T15:15:07;34;29.4;17.6
57798;PMS7003;43626;53.866;30.298;2024-02-26T15:19:46;34;29.4;17.6
57798;PMS7003;43626;53.866;30.298;2024-02-26T15:24:50;36.6;29.8;18.6
57798;PMS7003;43626;53.866;30.298;2024-02-26T15:30:03;35.4;29.4;17.8
57798;PMS7003;43626;53.866;30.298;2024-02-26T15:35:05;39;31.2;18.2
57798;PMS7003;43626;53.866;30.298;2024-02-26T15:39:14;39;31.2;18.2
57798;PMS7003;43626;53.866;30.298;2024-02-26T15:44:46;29.6;25.8;16.2
57798;PMS7003;43626;53.866;30.298;2024-02-26T15:49:52;33;25;15.6
57798;PMS7003;43626;53.866;30.298;2024-02-26T15:54:38;34;28.8;17.6
57798;PMS7003;43626;53.866;30.298;2024-02-26T15:59:14;35;28.8;17
57798;PMS7003;43626;53.866;30.298;2024-02-26T16:04:47;36.2;28;16.6
57798;PMS7003;43626;53.866;30.298;2024-02-26T16:09:22;32.4;28;16
57798;PMS7003;43626;53.866;30.298;2024-02-26T16:14:36;29.4;25.8;15.6
57798;PMS7003;43626;53.866;30.298;2024-02-26T16:19:57;29.4;25;15.2
57798;PMS7003;43626;53.866;30.298;2024-02-26T16:24:51;36.6;29.2;17.4
57798;PMS7003;43626;53.866;30.298;2024-02-26T16:30:07;35;30.3;16.8
57798;PMS7003;43626;53.866;30.298;2024-02-26T16:34:50;35;30.3;16.8
57798;PMS7003;43626;53.866;30.298;2024-02-26T16:39:22;30;26;16.2
57798;PMS7003;43626;53.866;30.298;2024-02-26T16:44:33;33.8;29;17.4
57798;PMS7003;43626;53.866;30.298;2024-02-26T16:49:22;41.2;33.4;19.6
57798;PMS7003;43626;53.866;30.298;2024-02-26T16:54:23;41.2;32.6;19.2
57798;PMS7003;43626;53.866;30.298;2024-02-26T16:59:48;37.6;31;18
57798;PMS7003;43626;53.866;30.298;2024-02-26T17:05:05;35;28.8;16.8
57798;PMS7003;43626;53.866;30.298;2024-02-26T17:10:05;33.2;28.4;19
57798;PMS7003;43626;53.866;30.298;2024-02-26T17:14:21;33.2;28.4;19
57798;PMS7003;43626;53.866;30.298;2024-02-26T17:19:17;37;30.6;18.4
57798;PMS7003;43626;53.866;30.298;2024-02-26T17:24:25;33;28;16
57798;PMS7003;43626;53.866;30.298;2024-02-26T17:30:05;36.8;30.3;18
57798;PMS7003;43626;53.866;30.298;2024-02-26T17:34:23;36.8;30.3;18
57798;PMS7003;43626;53.866;30.298;2024-02-26T17:39:45;35.4;30.4;17.2
57798;PMS7003;43626;53.866;30.298;2024-02-26T17:44:37;37.6;30.8;17.2
57798;PMS7003;43626;53.866;30.298;2024-02-26T17:50:05;32.6;25.6;14.8
57798;PMS7003;43626;53.866;30.298;2024-02-26T17:55:03;31.2;27.8;15.8
57798;PMS7003;43626;53.866;30.298;2024-02-26T18:00:05;30.4;24.8;13.6
57798;PMS7003;43626;53.866;30.298;2024-02-26T18:04:41;30.4;24.8;13.6
57798;PMS7003;43626;53.866;30.298;2024-02-26T18:09:17;31.6;27.2;15.4
57798;PMS7003;43626;53.866;30.298;2024-02-26T18:14:57;32.6;25.8;15
57798;PMS7003;43626;53.866;30.298;2024-02-26T18:19:15;29.6;24.6;15
57798;PMS7003;43626;53.866;30.298;2024-02-26T18:24:20;28.8;23.6;14.4
57798;PMS7003;43626;53.866;30.298;2024-02-26T18:29:15;34.2;26.2;15.8
57798;PMS7003;43626;53.866;30.298;2024-02-26T18:34:15;28.6;24.4;15.2
57798;PMS7003;43626;53.866;30.298;2024-02-26T18:39:29;30;25.5;15.8
57798;PMS7003;43626;53.866;30.298;2024-02-26T18:44:59;27.6;22;14
57798;PMS7003;43626;53.866;30.298;2024-02-26T18:49:15;29.4;24.6;14.2
57798;PMS7003;43626;53.866;30.298;2024-02-26T18:54:39;26;21.8;13.2
57798;PMS7003;43626;53.866;30.298;2024-02-26T19:00:05;30.6;26.4;14.8
57798;PMS7003;43626;53.866;30.298;2024-02-26T19:04:57;30.6;26.4;14.8
57798;PMS7003;43626;53.866;30.298;2024-02-26T19:09:23;27;22;13.8
57798;PMS7003;43626;53.866;30.298;2024-02-26T19:14:47;25.2;21;12.6
57798;PMS7003;43626;53.866;30.298;2024-02-26T19:20:05;28.2;22.8;12.6
57798;PMS7003;43626;53.866;30.298;2024-02-26T19:24:53;28.2;22.8;12.6
57798;PMS7003;43626;53.866;30.298;2024-02-26T19:29:23;28;24;13.5
57798;PMS7003;43626;53.866;30.298;2024-02-26T19:35:07;27.8;23;12.4
57798;PMS7003;43626;53.866;30.298;2024-02-26T19:40:07;26.8;23.2;13.4
57798;PMS7003;43626;53.866;30.298;2024-02-26T19:44:51;26.8;23.2;13.4
57798;PMS7003;43626;53.866;30.298;2024-02-26T19:50:07;28.2;23.4;14.6
57798;PMS7003;43626;53.866;30.298;2024-02-26T19:54:31;28.2;23.4;14.6
57798;PMS7003;43626;53.866;30.298;2024-02-26T19:59:37;29.8;22.2;12.6
57798;PMS7003;43626;53.866;30.298;2024-02-26T20:04:23;27.6;22.4;13.4
57798;PMS7003;43626;53.866;30.298;2024-02-26T20:09:37;24.2;21;14.4
57798;PMS7003;43626;53.866;30.298;2024-02-26T20:14:33;26.8;21.4;13.2
57798;PMS7003;43626;53.866;30.298;2024-02-26T20:19:45;26.6;22;13.2
57798;PMS7003;43626;53.866;30.298;2024-02-26T20:24:15;25.2;20;12.6
57798;PMS7003;43626;53.866;30.298;2024-02-26T20:30:05;31.4;24.2;14.6
57798;PMS7003;43626;53.866;30.298;2024-02-26T20:34:49;31.4;24.2;14.6
57798;PMS7003;43626;53.866;30.298;2024-02-26T20:39:49;28;24.5;14.3
57798;PMS7003;43626;53.866;30.298;2024-02-26T20:44:15;29.2;25.2;14.4
57798;PMS7003;43626;53.866;30.298;2024-02-26T20:49:45;30;25.4;14.8
57798;PMS7003;43626;53.866;30.298;2024-02-26T20:55:01;27.2;24;13.6
57798;PMS7003;43626;53.866;30.298;2024-02-26T20:59:37;28.2;24.2;14.2
57798;PMS7003;43626;53.866;30.298;2024-02-26T21:04:57;24.8;20.6;13
57798;PMS7003;43626;53.866;30.298;2024-02-26T21:09:51;28.6;23.2;14
57798;PMS7003;43626;53.866;30.298;2024-02-26T21:15:07;26.2;22.8;13
57798;PMS7003;43626;53.866;30.298;2024-02-26T21:19:39;26.2;22.8;13
57798;PMS7003;43626;53.866;30.298;2024-02-26T21:24:57;27;23.2;13.8
57798;PMS7003;43626;53.866;30.298;2024-02-26T21:29:41;28.4;22.6;13.2
57798;PMS7003;43626;53.866;30.298;2024-02-26T21:34:15;30.8;24;15
57798;PMS7003;43626;53.866;30.298;2024-02-26T21:39:15;28;25;15
57798;PMS7003;43626;53.866;30.298;2024-02-26T21:44:15;31.6;25.6;15.6
57798;PMS7003;43626;53.866;30.298;2024-02-26T21:49:15;33.4;26;15.2
57798;PMS7003;43626;53.866;30.298;2024-02-26T21:54:37;29.8;24.4;14
57798;PMS7003;43626;53.866;30.298;2024-02-26T21:59:49;31;24;14.6
57798;PMS7003;43626;53.866;30.298;2024-02-26T22:05:07;30;25;14.2
57798;PMS7003;43626;53.866;30.298;2024-02-26T22:09:51;30;25;14.2
57798;PMS7003;43626;53.866;30.298;2024-02-26T22:14:23;30.6;24.8;14.8
57798;PMS7003;43626;53.866;30.298;2024-02-26T22:19:37;30.8;25;14.2
57798;PMS7003;43626;53.866;30.298;2024-02-26T22:24:47;31.6;26.6;15.2
57798;PMS7003;43626;53.866;30.298;2024-02-26T22:30:07;30.4;24.8;14
57798;PMS7003;43626;53.866;30.298;2024-02-26T22:34:37;30.4;24.8;14
57798;PMS7003;43626;53.866;30.298;2024-02-26T22:39:31;28.8;24;13.5
57798;PMS7003;43626;53.866;30.298;2024-02-26T22:44:51;27;23.4;13.6
57798;PMS7003;43626;53.866;30.298;2024-02-26T22:50:07;27.6;23.8;14.4
57798;PMS7003;43626;53.866;30.298;2024-02-26T22:54:41;27.6;23.8;14.4
57798;PMS7003;43626;53.866;30.298;2024-02-26T22:59:49;27.6;23.4;14.4
57798;PMS7003;43626;53.866;30.298;2024-02-26T23:04:27;29.8;25;14.4
57798;PMS7003;43626;53.866;30.298;2024-02-26T23:09:23;29.8;24.2;14.4
57798;PMS7003;43626;53.866;30.298;2024-02-26T23:15:07;32.6;26.8;15.4
57798;PMS7003;43626;53.866;30.298;2024-02-26T23:19:35;32.6;26.8;15.4
57798;PMS7003;43626;53.866;30.298;2024-02-26T23:25:06;29.2;22.8;14
57798;PMS7003;43626;53.866;30.298;2024-02-26T23:29:43;29.2;22.8;14
57798;PMS7003;43626;53.866;30.298;2024-02-26T23:34:57;29.4;24.6;14.8
57798;PMS7003;43626;53.866;30.298;2024-02-26T23:39:57;28.8;25;14.8
57798;PMS7003;43626;53.866;30.298;2024-02-26T23:45:05;31;24.4;14
57798;PMS7003;43626;53.866;30.298;2024-02-26T23:50:05;25.2;23.2;14.6
57798;PMS7003;43626;53.866;30.298;2024-02-26T23:55:05;31;24.8;14.8
57798;PMS7003;43626;53.866;30.298;2024-02-26T23:59:41;31;24.8;14.8
